createdAt,value
2022-12-12T00:01:11.450Z,81.45
2022-12-12T00:03:38.569Z,77.85
2022-12-12T00:06:06.100Z,80.05
2022-12-12T00:08:33.219Z,78.00
2022-12-12T00:11:00.350Z,74.78
2022-12-12T00:13:27.380Z,76.50
2022-12-12T00:15:54.431Z,72.13
2022-12-12T00:18:21.472Z,77.95
2022-12-12T00:20:52.250Z,73.63
2022-12-12T00:23:19.474Z,79.35
2022-12-12T00:25:46.581Z,71.00
2022-12-12T00:28:13.592Z,73.20
2022-12-12T00:30:40.595Z,72.60
2022-12-12T00:33:07.576Z,66.43
2022-12-12T00:35:34.634Z,78.65
2022-12-12T00:38:01.745Z,78.85
2022-12-12T00:40:28.742Z,78.93
2022-12-12T00:42:55.811Z,75.00
2022-12-12T00:45:22.817Z,76.93
2022-12-12T00:47:49.894Z,67.15
2022-12-12T00:50:16.912Z,77.35
2022-12-12T00:52:43.954Z,69.15
2022-12-12T00:55:12.453Z,72.53
2022-12-12T00:57:39.600Z,78.55
2022-12-12T01:00:07.169Z,69.45
2022-12-12T01:02:34.196Z,73.05
2022-12-12T01:05:01.265Z,77.13
2022-12-12T01:07:28.637Z,79.70
2022-12-12T01:09:55.711Z,73.63
2022-12-12T01:12:22.757Z,74.78
2022-12-12T01:14:49.884Z,76.30
2022-12-12T01:17:16.909Z,69.65
2022-12-12T01:19:43.940Z,80.38
2022-12-12T01:22:11.055Z,76.82
2022-12-12T01:24:38.112Z,83.05
2022-12-12T01:27:05.239Z,70.68
2022-12-12T01:29:33.544Z,74.82
2022-12-12T01:32:00.700Z,76.65
2022-12-12T01:34:27.751Z,71.20
2022-12-12T01:36:54.765Z,73.57
2022-12-12T01:39:22.225Z,73.07
2022-12-12T01:41:49.226Z,70.50
2022-12-12T01:44:34.743Z,74.38
2022-12-12T01:47:01.851Z,76.25
2022-12-12T01:49:28.892Z,75.72
2022-12-12T01:51:57.626Z,75.40
2022-12-12T01:54:28.453Z,73.28
2022-12-12T01:56:56.058Z,73.65
2022-12-12T01:59:23.427Z,76.07
2022-12-12T02:01:50.542Z,72.18
2022-12-12T02:04:17.705Z,70.85
2022-12-12T02:06:44.771Z,67.72
2022-12-12T02:09:12.276Z,73.38
2022-12-12T02:11:42.788Z,71.40
2022-12-12T02:16:51.809Z,73.07
2022-12-12T02:19:25.874Z,74.82
2022-12-12T02:21:56.008Z,70.65
2022-12-12T02:24:28.885Z,74.28
2022-12-12T02:26:55.971Z,71.05
2022-12-12T02:29:26.047Z,79.63
2022-12-12T02:31:54.573Z,74.93
2022-12-12T02:34:24.731Z,75.97
2022-12-12T02:37:01.012Z,82.13
2022-12-12T02:39:34.088Z,70.47
2022-12-12T02:42:02.254Z,77.32
2022-12-12T02:44:36.697Z,78.20
2022-12-12T02:47:11.255Z,80.55
2022-12-12T02:49:39.722Z,78.78
2022-12-12T02:52:07.168Z,78.18
2022-12-12T02:54:34.926Z,82.80
2022-12-12T02:57:02.121Z,89.38
2022-12-12T02:59:34.276Z,85.70
2022-12-12T03:02:20.221Z,75.18
2022-12-12T03:05:11.562Z,74.45
2022-12-12T03:07:48.100Z,81.68
2022-12-12T03:10:17.849Z,70.93
2022-12-12T03:13:06.520Z,79.65
2022-12-12T03:15:39.839Z,70.47
2022-12-12T03:18:25.611Z,73.97
2022-12-12T03:21:11.410Z,66.18
2022-12-12T03:23:39.858Z,78.75
2022-12-12T03:26:15.460Z,74.20
2022-12-12T03:28:53.466Z,72.28
2022-12-12T03:31:20.919Z,70.65
2022-12-12T03:33:49.474Z,77.57
2022-12-12T03:36:24.296Z,76.97
2022-12-12T03:39:01.373Z,78.63
2022-12-12T03:41:30.162Z,90.88
2022-12-12T03:44:01.827Z,88.10
2022-12-12T03:46:29.937Z,84.22
2022-12-12T03:48:58.426Z,87.28
2022-12-12T03:51:29.325Z,86.80
2022-12-12T03:54:01.004Z,86.40
2022-12-12T03:56:39.973Z,90.55
2022-12-12T03:59:11.109Z,80.82
2022-12-12T04:01:48.887Z,89.45
2022-12-12T04:04:24.762Z,82.20
2022-12-12T04:07:10.505Z,86.28
2022-12-12T04:09:55.926Z,89.57
2022-12-12T04:12:53.805Z,97.82
2022-12-12T04:15:23.567Z,95.70
2022-12-12T04:18:09.119Z,96.88
2022-12-12T04:21:00.946Z,95.05
2022-12-12T04:23:28.009Z,99.82
2022-12-12T04:26:21.664Z,96.28
2022-12-12T04:28:55.527Z,94.25
2022-12-12T04:31:23.768Z,93.50
2022-12-12T04:33:50.907Z,94.68
2022-12-12T04:36:17.939Z,89.50
2022-12-12T04:38:45.565Z,95.20
2022-12-12T04:41:12.633Z,97.82
2022-12-12T04:43:39.680Z,100.97
2022-12-12T04:46:08.160Z,86.95
2022-12-12T04:48:38.656Z,91.90
2022-12-12T04:51:06.666Z,96.20
2022-12-12T04:53:34.680Z,96.03
2022-12-12T04:56:02.039Z,101.00
2022-12-12T04:58:29.115Z,89.70
2022-12-12T05:01:00.228Z,89.72
2022-12-12T05:03:33.318Z,95.47
2022-12-12T05:06:01.059Z,94.45
2022-12-12T05:08:29.424Z,95.90
2022-12-12T05:10:56.782Z,96.75
2022-12-12T05:13:24.762Z,92.40
2022-12-12T05:15:53.191Z,95.53
2022-12-12T05:18:20.220Z,99.22
2022-12-12T05:20:47.274Z,95.90
2022-12-12T05:23:14.529Z,97.40
2022-12-12T05:25:41.614Z,93.25
2022-12-12T05:28:08.784Z,100.30
2022-12-12T05:30:35.892Z,115.80
2022-12-12T05:33:03.013Z,99.20
2022-12-12T05:35:30.086Z,105.15
2022-12-12T05:37:57.167Z,95.63
2022-12-12T05:40:24.174Z,92.93
2022-12-12T05:42:51.444Z,100.70
2022-12-12T05:45:18.713Z,98.43
2022-12-12T05:47:45.797Z,97.35
2022-12-12T05:50:12.945Z,107.60
2022-12-12T05:52:40.260Z,100.25
2022-12-12T05:55:07.518Z,104.70
2022-12-12T05:57:34.621Z,110.10
2022-12-12T06:00:01.673Z,100.30
2022-12-12T06:02:28.777Z,108.57
2022-12-12T06:04:55.868Z,107.30
2022-12-12T06:07:22.997Z,107.90
2022-12-12T06:09:50.022Z,111.55
2022-12-12T06:12:17.064Z,108.03
2022-12-12T06:14:44.139Z,104.88
2022-12-12T06:17:11.153Z,103.03
2022-12-12T06:19:38.244Z,102.70
2022-12-12T06:22:05.350Z,102.15
2022-12-12T06:24:32.388Z,102.03
2022-12-12T06:26:59.486Z,100.70
2022-12-12T06:29:26.510Z,107.93
2022-12-12T06:31:53.590Z,105.30
2022-12-12T06:34:20.593Z,108.70
2022-12-12T06:36:47.597Z,107.95
2022-12-12T06:39:14.670Z,102.93
2022-12-12T06:41:41.765Z,103.40
2022-12-12T06:44:08.828Z,102.20
2022-12-12T06:46:35.900Z,109.55
2022-12-12T06:49:06.661Z,109.47
2022-12-12T06:51:34.863Z,113.20
2022-12-12T06:54:01.952Z,101.60
2022-12-12T06:56:29.173Z,106.50
2022-12-12T06:58:56.314Z,109.38
2022-12-12T07:01:23.806Z,110.68
2022-12-12T07:03:51.708Z,108.90
2022-12-12T07:06:19.099Z,105.22
2022-12-12T07:08:46.195Z,118.07
2022-12-12T07:11:17.319Z,116.90
2022-12-12T07:13:44.557Z,108.32
2022-12-12T07:16:11.824Z,115.10
2022-12-12T07:18:39.012Z,114.65
2022-12-12T07:21:07.018Z,117.35
2022-12-12T07:23:34.567Z,107.88
2022-12-12T07:26:03.944Z,114.72
2022-12-12T07:28:31.357Z,105.65
2022-12-12T07:30:58.730Z,113.97
2022-12-12T07:33:33.171Z,112.15
2022-12-12T07:36:06.836Z,116.38
2022-12-12T07:38:33.935Z,115.25
2022-12-12T07:41:07.866Z,112.82
2022-12-12T07:43:38.555Z,104.03
2022-12-12T07:46:10.451Z,107.30
2022-12-12T07:48:37.586Z,104.97
2022-12-12T07:51:04.703Z,111.47
2022-12-12T07:53:31.816Z,108.55
2022-12-12T07:55:58.888Z,120.60
2022-12-12T07:58:25.897Z,114.95
2022-12-12T08:00:52.955Z,116.43
2022-12-12T08:03:20.038Z,122.45
2022-12-12T08:05:47.163Z,120.18
2022-12-12T08:08:14.230Z,121.75
2022-12-12T08:10:41.500Z,116.80
2022-12-12T08:13:08.541Z,118.72
2022-12-12T08:15:35.556Z,114.05
2022-12-12T08:18:02.634Z,115.70
2022-12-12T08:20:29.691Z,124.50
2022-12-12T08:22:56.759Z,126.00
2022-12-12T08:25:23.756Z,124.35
2022-12-12T08:27:50.834Z,126.35
2022-12-12T08:30:17.895Z,124.68
2022-12-12T08:32:44.960Z,123.40
2022-12-12T08:35:12.438Z,132.88
2022-12-12T08:37:39.671Z,126.07
2022-12-12T08:40:07.121Z,132.57
2022-12-12T08:42:34.290Z,125.07
2022-12-12T08:45:01.410Z,117.22
2022-12-12T08:47:29.478Z,115.22
2022-12-12T08:49:56.489Z,108.38
2022-12-12T08:52:23.509Z,105.65
2022-12-12T08:54:50.510Z,108.45
2022-12-12T08:57:21.377Z,94.40
2022-12-12T08:59:51.360Z,98.00
2022-12-12T09:02:18.562Z,92.50
2022-12-12T09:04:45.707Z,97.30
2022-12-12T09:07:12.802Z,93.53
2022-12-12T09:09:39.823Z,94.72
2022-12-12T09:12:07.054Z,88.88
2022-12-12T09:14:34.134Z,82.07
2022-12-12T09:17:01.227Z,89.40
2022-12-12T09:19:28.267Z,91.82
2022-12-12T09:21:55.310Z,91.35
2022-12-12T09:24:23.962Z,88.05
2022-12-12T09:26:51.054Z,84.63
2022-12-12T09:29:18.190Z,89.15
2022-12-12T09:31:45.308Z,82.15
2022-12-12T09:34:12.371Z,76.00
2022-12-12T09:36:39.446Z,71.47
2022-12-12T09:39:06.490Z,65.80
2022-12-12T09:41:33.579Z,61.17
2022-12-12T09:44:10.844Z,64.18
2022-12-12T09:46:42.048Z,61.85
2022-12-12T09:49:16.400Z,67.90
2022-12-12T09:51:44.817Z,68.32
2022-12-12T09:54:15.851Z,67.30
2022-12-12T09:56:53.359Z,70.05
2022-12-12T09:59:23.750Z,58.55
2022-12-12T10:01:54.348Z,65.53
2022-12-12T10:04:21.409Z,67.13
2022-12-12T10:06:50.603Z,66.28
2022-12-12T10:09:36.571Z,66.72
2022-12-12T10:12:08.028Z,66.25
2022-12-12T10:14:38.594Z,60.65
2022-12-12T10:17:07.398Z,66.65
2022-12-12T10:19:35.202Z,61.55
2022-12-12T10:22:07.455Z,58.03
2022-12-12T10:24:37.617Z,65.28
2022-12-12T10:27:11.495Z,60.00
2022-12-12T10:29:41.562Z,63.92
2022-12-12T10:32:12.417Z,64.88
2022-12-12T10:34:58.395Z,62.13
2022-12-12T10:37:25.467Z,57.28
2022-12-12T10:40:11.233Z,59.00
2022-12-12T10:42:56.115Z,65.97
2022-12-12T10:45:38.683Z,64.57
2022-12-12T10:48:06.005Z,59.40
2022-12-12T10:50:53.309Z,65.50
2022-12-12T10:53:20.372Z,58.20
2022-12-12T10:55:50.195Z,55.42
2022-12-12T10:58:17.238Z,63.90
2022-12-12T11:00:45.664Z,64.65
2022-12-12T11:03:21.897Z,59.22
2022-12-12T11:05:49.307Z,55.97
2022-12-12T11:08:19.349Z,57.92
2022-12-12T11:10:46.544Z,52.33
2022-12-12T11:13:16.904Z,57.67
2022-12-12T11:15:47.005Z,61.22
2022-12-12T11:18:15.102Z,58.63
2022-12-12T11:20:46.557Z,65.00
2022-12-12T11:23:18.334Z,74.50
2022-12-12T11:25:45.567Z,75.60
2022-12-12T11:28:16.969Z,71.80
2022-12-12T11:30:44.004Z,77.85
2022-12-12T11:33:19.154Z,74.88
2022-12-12T11:35:47.945Z,72.13
2022-12-12T11:38:22.257Z,69.47
2022-12-12T11:40:56.633Z,69.25
2022-12-12T11:43:26.564Z,67.43
2022-12-12T11:45:59.877Z,64.13
2022-12-12T11:48:59.354Z,64.28
2022-12-12T11:51:35.450Z,60.20
2022-12-12T11:54:22.841Z,57.72
2022-12-12T11:56:57.533Z,56.00
2022-12-12T11:59:28.909Z,53.15
2022-12-12T12:02:10.955Z,48.13
2022-12-12T12:04:52.832Z,52.45
2022-12-12T12:07:34.293Z,43.28
2022-12-12T12:10:04.058Z,48.55
2022-12-12T12:12:39.266Z,47.97
2022-12-12T12:15:06.821Z,55.08
2022-12-12T12:17:42.772Z,53.20
2022-12-12T12:20:18.677Z,54.33
2022-12-12T12:22:51.481Z,53.45
2022-12-12T12:25:18.541Z,55.38
2022-12-12T12:28:01.866Z,53.72
2022-12-12T12:30:30.921Z,52.15
2022-12-12T12:33:16.854Z,49.40
2022-12-12T12:36:06.367Z,52.47
2022-12-12T12:38:52.252Z,52.67
2022-12-12T12:41:26.662Z,46.63
2022-12-12T12:44:12.596Z,49.95
2022-12-12T12:46:44.598Z,47.83
2022-12-12T12:49:31.893Z,44.30
2022-12-12T12:52:03.411Z,37.42
2022-12-12T12:54:56.870Z,39.50
2022-12-12T12:57:23.867Z,38.95
2022-12-12T12:59:51.771Z,37.35
2022-12-12T13:02:35.753Z,43.97
2022-12-12T13:05:07.928Z,47.58
2022-12-12T13:07:47.236Z,48.28
2022-12-12T13:10:21.659Z,47.50
2022-12-12T13:12:48.719Z,51.97
2022-12-12T13:15:15.783Z,49.63
2022-12-12T13:17:45.489Z,50.58
2022-12-12T13:20:19.998Z,46.25
2022-12-12T13:22:49.424Z,46.25
2022-12-12T13:25:19.950Z,44.95
2022-12-12T13:30:18.386Z,46.75
2022-12-12T13:32:52.691Z,44.08
2022-12-12T13:35:26.585Z,46.97
2022-12-12T13:37:53.773Z,44.53
2022-12-12T13:40:32.935Z,44.17
2022-12-12T13:43:07.458Z,44.92
2022-12-12T13:45:37.993Z,41.78
2022-12-12T13:48:08.136Z,44.38
2022-12-12T13:50:35.197Z,45.38
2022-12-12T13:53:08.480Z,45.30
2022-12-12T13:55:35.835Z,48.30
2022-12-12T13:58:05.463Z,42.28
2022-12-12T14:00:33.079Z,48.40
2022-12-12T14:03:06.318Z,49.28
2022-12-12T14:05:42.945Z,43.67
2022-12-12T14:08:15.864Z,43.90
2022-12-12T14:10:44.149Z,45.47
2022-12-12T14:13:18.228Z,43.88
2022-12-12T14:15:45.477Z,42.60
2022-12-12T14:18:31.607Z,42.45
2022-12-12T14:21:00.316Z,47.15
2022-12-12T14:23:28.392Z,45.08
2022-12-12T14:25:55.772Z,48.60
2022-12-12T14:28:29.851Z,44.70
2022-12-12T14:31:03.140Z,48.08
2022-12-12T14:33:53.680Z,46.58
2022-12-12T14:36:21.807Z,50.22
2022-12-12T14:39:04.052Z,49.95
2022-12-12T14:41:33.375Z,48.35
2022-12-12T14:44:37.374Z,48.65
2022-12-12T14:46:47.523Z,51.28
2022-12-12T14:49:15.558Z,52.70
2022-12-12T14:51:42.601Z,50.58
2022-12-12T14:54:19.919Z,52.88
2022-12-12T14:56:52.946Z,55.88
2022-12-12T14:59:24.319Z,52.47
2022-12-12T15:01:52.617Z,53.38
2022-12-12T15:04:39.991Z,48.08
2022-12-12T15:07:07.721Z,57.22
2022-12-12T15:09:35.458Z,54.40
2022-12-12T15:12:08.466Z,54.75
2022-12-12T15:14:35.503Z,49.20
2022-12-12T15:17:09.693Z,55.83
2022-12-12T15:19:38.106Z,54.15
2022-12-12T15:22:10.301Z,49.50
2022-12-12T15:24:37.738Z,56.47
2022-12-12T15:27:04.787Z,55.65
2022-12-12T15:29:31.927Z,49.53
2022-12-12T15:32:06.527Z,60.42
2022-12-12T15:34:33.728Z,54.97
2022-12-12T15:37:19.422Z,67.63
2022-12-12T15:39:46.460Z,58.50
2022-12-12T15:42:13.853Z,54.80
2022-12-12T15:44:42.639Z,73.18
2022-12-12T15:47:11.597Z,64.30
2022-12-12T15:49:39.752Z,62.25
2022-12-12T15:52:20.433Z,59.97
2022-12-12T15:54:51.188Z,57.78
2022-12-12T15:57:19.236Z,60.78
2022-12-12T15:59:46.454Z,67.32
2022-12-12T16:02:14.542Z,69.82
2022-12-12T16:04:41.595Z,67.32
2022-12-12T16:07:15.326Z,67.00
2022-12-12T16:09:57.069Z,72.78
2022-12-12T16:12:42.641Z,74.30
2022-12-12T16:15:19.673Z,75.80
2022-12-12T16:18:05.576Z,74.95
2022-12-12T16:20:32.614Z,78.13
2022-12-12T16:23:16.944Z,81.65
2022-12-12T16:25:44.012Z,92.05
2022-12-12T16:28:17.088Z,97.60
2022-12-12T16:30:50.622Z,117.38
2022-12-12T16:33:25.271Z,101.22
2022-12-12T16:35:52.482Z,91.13
2022-12-12T16:38:19.577Z,86.82
2022-12-12T16:40:47.615Z,78.63
2022-12-12T16:43:15.223Z,81.03
2022-12-12T16:45:42.668Z,76.70
2022-12-12T16:48:14.161Z,78.10
2022-12-12T16:50:41.187Z,73.05
2022-12-12T16:53:08.694Z,84.15
2022-12-12T16:55:36.210Z,80.82
2022-12-12T16:58:03.856Z,73.50
2022-12-12T17:00:30.982Z,71.60
2022-12-12T17:02:58.090Z,71.32
2022-12-12T17:05:25.665Z,74.63
2022-12-12T17:07:53.019Z,83.53
2022-12-12T17:10:21.116Z,85.22
2022-12-12T17:12:48.218Z,98.57
2022-12-12T17:15:17.525Z,82.63
2022-12-12T17:17:45.317Z,84.40
2022-12-12T17:20:12.530Z,72.03
2022-12-12T17:22:40.740Z,73.30
2022-12-12T17:25:08.392Z,78.80
2022-12-12T17:27:35.890Z,80.15
2022-12-12T17:30:03.058Z,75.18
2022-12-12T17:32:30.327Z,77.40
2022-12-12T17:34:57.416Z,81.57
2022-12-12T17:37:24.498Z,80.88
2022-12-12T17:39:51.558Z,83.90
2022-12-12T17:42:18.714Z,78.93
2022-12-12T17:44:45.782Z,87.47
2022-12-12T17:47:12.941Z,94.53
2022-12-12T17:49:40.016Z,78.65
2022-12-12T17:52:07.050Z,119.18
2022-12-12T17:54:34.056Z,85.95
2022-12-12T17:57:01.211Z,84.20
2022-12-12T17:59:28.742Z,86.45
2022-12-12T18:01:55.749Z,88.43
2022-12-12T18:04:27.641Z,89.72
2022-12-12T18:06:55.264Z,87.97
2022-12-12T18:09:22.351Z,87.97
2022-12-12T18:11:49.399Z,79.45
2022-12-12T18:14:19.093Z,78.90
2022-12-12T18:16:53.300Z,80.60
2022-12-12T18:19:21.077Z,84.18
2022-12-12T18:22:03.797Z,89.70
2022-12-12T18:24:32.380Z,107.57
2022-12-12T18:27:00.075Z,87.88
2022-12-12T18:29:27.280Z,91.93
2022-12-12T18:31:54.540Z,82.55
2022-12-12T18:34:21.741Z,85.28
2022-12-12T18:36:49.742Z,102.80
2022-12-12T18:39:16.826Z,90.78
2022-12-12T18:41:43.855Z,99.22
2022-12-12T18:44:12.259Z,96.30
2022-12-12T18:46:43.189Z,94.63
2022-12-12T18:49:12.957Z,97.28
2022-12-12T18:51:40.116Z,126.25
2022-12-12T18:54:14.403Z,128.48
2022-12-12T18:56:42.271Z,126.95
2022-12-12T18:59:09.343Z,136.35
2022-12-12T19:01:36.528Z,136.45
2022-12-12T19:04:10.494Z,137.05
2022-12-12T19:06:39.523Z,132.05
2022-12-12T19:09:11.558Z,115.47
2022-12-12T19:11:38.745Z,125.95
2022-12-12T19:14:06.715Z,120.85
2022-12-12T19:16:33.888Z,125.00
2022-12-12T19:19:01.242Z,125.20
2022-12-12T19:21:28.435Z,125.68
2022-12-12T19:23:55.464Z,100.93
2022-12-12T19:26:27.765Z,105.32
2022-12-12T19:28:58.586Z,103.20
2022-12-12T19:31:25.646Z,108.75
2022-12-12T19:33:52.813Z,110.38
2022-12-12T19:36:20.836Z,123.85
2022-12-12T19:38:48.065Z,134.65
2022-12-12T19:41:15.481Z,130.40
2022-12-12T19:43:42.941Z,134.27
2022-12-12T19:46:10.866Z,121.13
2022-12-12T19:48:38.051Z,126.43
2022-12-12T19:51:06.212Z,118.03
2022-12-12T19:53:33.323Z,131.98
2022-12-12T19:56:00.382Z,126.18
2022-12-12T19:58:27.691Z,122.35
2022-12-12T20:00:54.694Z,116.13
2022-12-12T20:03:21.886Z,116.70
2022-12-12T20:05:53.467Z,127.15
2022-12-12T20:08:20.731Z,107.95
2022-12-12T20:10:47.806Z,107.20
2022-12-12T20:13:14.843Z,114.47
2022-12-12T20:15:41.948Z,106.93
2022-12-12T20:18:16.248Z,95.43
2022-12-12T20:20:43.636Z,95.97
2022-12-12T20:23:10.743Z,95.28
2022-12-12T20:25:40.334Z,106.28
2022-12-12T20:28:07.406Z,112.57
2022-12-12T20:30:34.495Z,113.50
2022-12-12T20:33:01.542Z,120.25
2022-12-12T20:35:29.106Z,117.20
2022-12-12T20:37:56.175Z,147.73
2022-12-12T20:40:23.405Z,163.77
2022-12-12T20:42:55.938Z,122.43
2022-12-12T20:45:25.624Z,108.60
2022-12-12T20:47:52.701Z,111.30
2022-12-12T20:50:19.794Z,109.13
2022-12-12T20:52:47.598Z,114.60
2022-12-12T20:55:14.853Z,110.57
2022-12-12T20:57:42.096Z,105.45
2022-12-12T21:00:09.444Z,91.45
2022-12-12T21:02:36.565Z,92.50
2022-12-12T21:05:05.528Z,75.97
2022-12-12T21:07:33.133Z,86.70
2022-12-12T21:10:00.137Z,83.60
2022-12-12T21:12:27.155Z,83.78
2022-12-12T21:14:57.158Z,81.60
2022-12-12T21:17:28.116Z,78.13
2022-12-12T21:19:55.292Z,81.03
2022-12-12T21:22:22.335Z,71.47
2022-12-12T21:24:49.534Z,82.00
2022-12-12T21:27:16.602Z,88.88
2022-12-12T21:29:43.642Z,77.43
2022-12-12T21:32:10.713Z,83.78
2022-12-12T21:34:40.079Z,88.15
2022-12-12T21:37:07.201Z,88.80
2022-12-12T21:39:34.345Z,83.40
2022-12-12T21:42:01.374Z,83.35
2022-12-12T21:44:28.471Z,83.38
2022-12-12T21:46:55.542Z,84.85
2022-12-12T21:49:30.099Z,75.50
2022-12-12T21:51:58.094Z,82.00
2022-12-12T21:54:25.187Z,82.47
2022-12-12T21:56:52.700Z,84.13
2022-12-12T21:59:19.717Z,89.80
2022-12-12T22:01:46.819Z,75.93
2022-12-12T22:04:14.140Z,76.00
2022-12-12T22:06:41.177Z,78.57
2022-12-12T22:09:09.142Z,85.70
2022-12-12T22:11:48.060Z,84.60
2022-12-12T22:14:18.248Z,89.53
2022-12-12T22:16:45.300Z,88.53
2022-12-12T22:19:12.819Z,83.05
2022-12-12T22:21:39.902Z,81.88
2022-12-12T22:24:07.227Z,83.30
2022-12-12T22:26:35.472Z,88.00
2022-12-12T22:29:03.590Z,89.40
2022-12-12T22:31:31.380Z,95.00
2022-12-12T22:34:01.861Z,92.72
2022-12-12T22:36:29.819Z,96.03
2022-12-12T22:38:57.027Z,90.72
2022-12-12T22:41:24.213Z,93.25
2022-12-12T22:43:54.794Z,92.60
2022-12-12T22:46:21.953Z,87.93
2022-12-12T22:48:49.143Z,91.35
2022-12-12T22:51:16.714Z,86.43
2022-12-12T22:53:44.526Z,97.30
2022-12-12T22:56:11.729Z,90.38
2022-12-12T22:58:38.769Z,92.97
2022-12-12T23:01:09.745Z,82.07
2022-12-12T23:03:36.933Z,85.28
2022-12-12T23:06:07.643Z,90.38
2022-12-12T23:08:34.790Z,86.68
2022-12-12T23:11:05.878Z,93.63
2022-12-12T23:13:33.182Z,95.25
2022-12-12T23:16:00.338Z,85.90
2022-12-12T23:18:27.564Z,84.93
2022-12-12T23:20:54.634Z,85.35
2022-12-12T23:23:21.735Z,82.18
2022-12-12T23:25:49.151Z,96.80
2022-12-12T23:28:16.266Z,75.95
2022-12-12T23:30:43.292Z,87.88
2022-12-12T23:33:10.366Z,91.10
2022-12-12T23:35:37.430Z,85.57
2022-12-12T23:38:04.489Z,85.78
2022-12-12T23:40:31.584Z,152.45
2022-12-12T23:42:58.640Z,102.63
2022-12-12T23:45:25.737Z,85.07
2022-12-12T23:47:52.793Z,84.10
2022-12-12T23:50:19.805Z,82.18
2022-12-12T23:52:46.841Z,85.45
2022-12-12T23:55:14.089Z,86.43
2022-12-12T23:57:41.445Z,74.55
